Time;durP1;ratioP1;P1;durP2;ratioP2;P2;SDS_P1;SDS_P2;PMS_P1;PMS_P2;Temp;Humidity;BMP_temperature;BMP_pressure;BME280_temperature;BME280_humidity;BME280_pressure;Samples;Min_cycle;Max_cycle;Signal;HPM_P1;HPM_P2
2024/02/20 00:01:50;;;;;;;4.38;2.60;;;22.20;55.50;;;;;;5036774;28;85628;-64
2024/02/20 00:04:19;;;;;;;3.60;2.17;;;22.20;55.60;;;;;;5035491;28;86027;-63
2024/02/20 00:06:45;;;;;;;3.92;1.95;;;22.20;55.60;;;;;;5017722;28;86499;-64
2024/02/20 00:09:11;;;;;;;3.08;1.80;;;22.20;55.50;;;;;;5016186;28;87052;-64
2024/02/20 00:11:38;;;;;;;4.18;2.50;;;22.20;55.60;;;;;;5016655;28;85829;-63
2024/02/20 00:14:05;;;;;;;4.35;1.90;;;22.20;55.60;;;;;;5033163;28;86356;-65
2024/02/20 00:16:31;;;;;;;4.60;2.45;;;22.20;55.50;;;;;;5035619;28;87481;-64
2024/02/20 00:18:56;;;;;;;5.70;2.90;;;22.10;55.50;;;;;;5035189;28;86364;-63
2024/02/20 00:21:24;;;;;;;4.75;2.42;;;22.10;55.30;;;;;;5013662;28;86521;-64
2024/02/20 00:23:51;;;;;;;17.02;3.47;;;22.10;55.40;;;;;;5014077;28;85681;-64
2024/02/20 00:26:21;;;;;;;4.10;2.38;;;22.10;55.40;;;;;;5015171;28;88258;-64
2024/02/20 00:28:47;;;;;;;5.40;2.10;;;22.10;55.50;;;;;;5036179;28;86130;-63
2024/02/20 00:31:15;;;;;;;3.90;2.17;;;22.10;55.40;;;;;;5016484;28;86142;-64
2024/02/20 00:33:41;;;;;;;3.83;2.08;;;22.10;55.40;;;;;;5034859;28;85663;-65
2024/02/20 00:36:07;;;;;;;3.78;1.77;;;22.10;55.50;;;;;;5016398;28;86215;-63
2024/02/20 00:38:32;;;;;;;5.05;2.53;;;22.10;55.40;;;;;;5035216;28;86204;-64
2024/02/20 00:40:58;;;;;;;3.90;2.30;;;22.10;55.30;;;;;;5035520;28;86108;-64
2024/02/20 00:43:23;;;;;;;4.85;2.83;;;22.10;55.30;;;;;;5034884;28;85914;-64
2024/02/20 00:45:50;;;;;;;3.35;2.15;;;22.00;55.30;;;;;;5034034;28;86529;-64
2024/02/20 00:48:16;;;;;;;3.35;1.58;;;22.10;55.40;;;;;;5034197;28;86381;-65
2024/02/20 00:50:42;;;;;;;2.83;1.98;;;22.00;55.30;;;;;;5016497;28;86662;-63
2024/02/20 00:53:10;;;;;;;2.80;1.77;;;22.00;55.20;;;;;;5034963;28;86021;-64
2024/02/20 00:55:36;;;;;;;7.17;2.47;;;22.00;55.30;;;;;;5034640;28;87426;-63
2024/02/20 00:58:01;;;;;;;3.65;1.92;;;22.00;55.30;;;;;;5033855;28;86641;-64
2024/02/20 01:00:28;;;;;;;5.78;2.10;;;22.00;55.20;;;;;;5033422;28;85606;-65
2024/02/20 01:02:53;;;;;;;4.03;1.73;;;21.90;55.10;;;;;;5033908;28;86182;-64
2024/02/20 01:05:19;;;;;;;4.32;2.40;;;21.90;55.20;;;;;;5032466;28;86338;-63
2024/02/20 01:07:45;;;;;;;3.65;2.05;;;21.90;55.20;;;;;;5032465;28;85948;-65
2024/02/20 01:10:11;;;;;;;3.30;2.30;;;21.90;55.40;;;;;;4996631;28;85879;-64
2024/02/20 01:12:38;;;;;;;4.70;2.25;;;21.90;55.30;;;;;;5033228;28;85757;-64
2024/02/20 01:15:05;;;;;;;5.22;2.28;;;21.90;55.20;;;;;;5014583;28;87167;-63
2024/02/20 01:17:31;;;;;;;4.20;2.13;;;21.90;55.10;;;;;;5029693;28;86700;-63
2024/02/20 01:19:58;;;;;;;3.63;1.95;;;21.90;55.20;;;;;;5034644;28;85832;-63
2024/02/20 01:22:24;;;;;;;3.45;1.98;;;21.90;55.10;;;;;;5029347;28;85810;-64
2024/02/20 01:24:51;;;;;;;2.78;1.60;;;21.90;55.20;;;;;;5016163;28;87249;-63
2024/02/20 01:27:17;;;;;;;4.45;2.08;;;21.80;55.10;;;;;;5016814;28;86889;-64
2024/02/20 01:29:44;;;;;;;3.33;2.10;;;21.80;55.10;;;;;;5034434;28;85758;-63
2024/02/20 01:32:10;;;;;;;3.70;1.95;;;21.80;55.20;;;;;;5033997;28;86092;-64
2024/02/20 01:34:36;;;;;;;3.45;1.90;;;21.80;55.20;;;;;;5016023;28;86969;-65
2024/02/20 01:37:02;;;;;;;3.45;1.85;;;21.80;55.00;;;;;;5034242;28;86415;-63
2024/02/20 01:39:27;;;;;;;4.55;2.13;;;21.80;55.60;;;;;;5032014;28;85723;-64
2024/02/20 01:41:53;;;;;;;4.30;2.03;;;21.80;55.10;;;;;;5034936;28;85524;-64
2024/02/20 01:44:21;;;;;;;2.63;2.00;;;21.80;55.20;;;;;;5015247;28;86581;-64
2024/02/20 01:46:52;;;;;;;3.83;2.45;;;21.80;55.10;;;;;;5016671;28;87516;-64
2024/02/20 01:49:18;;;;;;;5.60;2.10;;;21.80;55.10;;;;;;5034048;28;86187;-65
2024/02/20 01:51:43;;;;;;;4.60;2.75;;;21.80;55.10;;;;;;5034306;28;86046;-64
2024/02/20 01:54:09;;;;;;;3.03;2.40;;;21.80;55.10;;;;;;5034358;27;86886;-63
2024/02/20 01:56:35;;;;;;;5.13;2.53;;;21.80;55.00;;;;;;5016683;28;86567;-63
2024/02/20 01:59:02;;;;;;;3.08;1.80;;;21.70;55.00;;;;;;4999667;28;85803;-64
2024/02/20 02:01:27;;;;;;;3.42;2.20;;;21.70;55.10;;;;;;5016816;28;87987;-64
2024/02/20 02:03:53;;;;;;;3.58;1.90;;;21.70;55.00;;;;;;5031300;28;86834;-64
2024/02/20 02:06:37;;;;;;;3.92;1.55;;;21.70;54.90;;;;;;5030962;28;86256;-63
2024/02/20 02:09:02;;;;;;;3.30;1.83;;;21.70;54.80;;;;;;5038398;28;85920;-64
2024/02/20 02:11:28;;;;;;;4.22;2.47;;;21.70;54.70;;;;;;5018543;28;86991;-64
2024/02/20 02:13:55;;;;;;;5.03;2.20;;;21.70;54.90;;;;;;5037462;28;87024;-66
2024/02/20 02:16:21;;;;;;;5.38;2.35;;;21.70;54.80;;;;;;5016393;28;87465;-64
2024/02/20 02:18:47;;;;;;;4.63;2.28;;;21.70;54.80;;;;;;5039294;28;85737;-63
2024/02/20 02:21:13;;;;;;;3.00;2.03;;;21.70;54.80;;;;;;5038971;28;85685;-63
2024/02/20 02:23:39;;;;;;;2.70;1.67;;;21.70;54.90;;;;;;5038356;28;86249;-64
2024/02/20 02:26:11;;;;;;;3.53;2.10;;;21.60;54.80;;;;;;5035300;28;86845;-65
2024/02/20 02:28:37;;;;;;;4.60;2.35;;;21.70;54.70;;;;;;5038296;28;86239;-63
2024/02/20 02:31:02;;;;;;;3.13;2.08;;;21.60;54.90;;;;;;5036420;28;85814;-64
2024/02/20 02:33:28;;;;;;;3.95;2.05;;;21.60;54.80;;;;;;5035588;28;86752;-64
2024/02/20 02:35:54;;;;;;;4.22;2.10;;;21.60;54.70;;;;;;5036952;28;87233;-63
2024/02/20 02:38:20;;;;;;;3.05;1.92;;;21.60;54.70;;;;;;5029856;28;86342;-64
2024/02/20 02:40:45;;;;;;;4.25;2.88;;;21.60;54.90;;;;;;5018057;28;85912;-63
2024/02/20 02:43:13;;;;;;;4.68;2.63;;;21.60;54.80;;;;;;5035310;28;87137;-63
2024/02/20 02:45:40;;;;;;;2.40;1.85;;;21.60;54.80;;;;;;5017211;28;86918;-64
2024/02/20 02:48:08;;;;;;;3.90;1.80;;;21.60;54.60;;;;;;5018040;28;85791;-64
2024/02/20 02:50:34;;;;;;;4.82;2.55;;;21.60;54.70;;;;;;5017652;28;86132;-64
2024/02/20 02:52:59;;;;;;;3.65;1.88;;;21.60;54.70;;;;;;5018356;28;87663;-65
2024/02/20 02:55:27;;;;;;;4.40;2.40;;;21.60;54.60;;;;;;5032733;28;85693;-64
2024/02/20 02:57:54;;;;;;;3.47;2.25;;;21.60;54.70;;;;;;5014070;28;85519;-64
2024/02/20 03:00:20;;;;;;;4.50;2.33;;;21.60;55.40;;;;;;5033228;28;86234;-64
2024/02/20 03:02:46;;;;;;;4.57;2.03;;;21.50;54.70;;;;;;5035123;28;87015;-64
2024/02/20 03:05:13;;;;;;;3.20;1.80;;;21.50;54.60;;;;;;5036039;28;86382;-63
2024/02/20 03:07:39;;;;;;;4.22;2.00;;;21.50;54.70;;;;;;5036458;28;85623;-65
2024/02/20 03:10:07;;;;;;;3.33;1.70;;;21.50;54.80;;;;;;5030876;28;86445;-63
2024/02/20 03:12:33;;;;;;;2.58;1.67;;;21.50;54.60;;;;;;5035397;28;87807;-64
2024/02/20 03:14:59;;;;;;;3.33;2.00;;;21.50;54.70;;;;;;5034921;28;86817;-64
2024/02/20 03:17:25;;;;;;;8.38;2.22;;;21.50;54.60;;;;;;5037049;28;86150;-64
2024/02/20 03:19:51;;;;;;;2.28;1.60;;;21.50;54.70;;;;;;5017195;28;86293;-64
2024/02/20 03:22:18;;;;;;;3.60;1.95;;;21.50;54.70;;;;;;5035073;28;86795;-64
2024/02/20 03:24:45;;;;;;;3.40;2.10;;;21.50;54.60;;;;;;5034971;28;85921;-64
2024/02/20 03:27:12;;;;;;;4.53;2.47;;;21.50;54.40;;;;;;5035836;28;86016;-64
2024/02/20 03:29:37;;;;;;;4.53;2.40;;;21.50;54.70;;;;;;5016295;28;86024;-63
2024/02/20 03:32:03;;;;;;;3.63;1.95;;;21.50;54.70;;;;;;5017544;28;87417;-64
2024/02/20 03:34:28;;;;;;;2.97;1.73;;;21.50;54.60;;;;;;5036419;28;86110;-64
2024/02/20 03:36:54;;;;;;;2.28;1.83;;;21.50;54.60;;;;;;5035868;28;85978;-64
2024/02/20 03:39:20;;;;;;;4.00;2.63;;;21.50;54.60;;;;;;5036605;28;85884;-65
2024/02/20 03:41:46;;;;;;;5.13;2.30;;;21.50;54.60;;;;;;5016224;28;87699;-64
2024/02/20 03:44:16;;;;;;;3.63;1.98;;;21.50;54.50;;;;;;5015808;28;87422;-63
2024/02/20 03:46:43;;;;;;;4.03;2.03;;;21.50;54.60;;;;;;5017739;28;86145;-63
2024/02/20 03:49:11;;;;;;;2.60;1.52;;;21.40;54.50;;;;;;5016118;28;85877;-63
2024/02/20 03:51:39;;;;;;;3.58;1.95;;;21.40;54.60;;;;;;5015821;28;88340;-64
2024/02/20 03:54:05;;;;;;;6.50;2.28;;;21.40;54.50;;;;;;5016970;28;86024;-64
2024/02/20 03:56:31;;;;;;;3.88;1.90;;;21.40;55.20;;;;;;5031455;28;86021;-65
2024/02/20 03:58:57;;;;;;;3.72;2.15;;;21.40;54.50;;;;;;5036613;28;86258;-64
2024/02/20 04:01:23;;;;;;;3.00;2.05;;;21.40;54.60;;;;;;5013591;28;88126;-64
2024/02/20 04:03:49;;;;;;;4.95;2.08;;;21.40;54.50;;;;;;5036143;28;85926;-63
2024/02/20 04:06:16;;;;;;;5.10;1.60;;;21.40;54.50;;;;;;5036240;28;85582;-65
2024/02/20 04:08:42;;;;;;;3.65;1.60;;;21.40;54.50;;;;;;5013066;28;86778;-63
2024/02/20 04:11:08;;;;;;;4.22;1.90;;;21.40;54.60;;;;;;5029889;28;86334;-63
2024/02/20 04:13:34;;;;;;;2.80;1.63;;;21.30;54.60;;;;;;5035729;28;86232;-64
2024/02/20 04:16:00;;;;;;;4.35;2.25;;;21.30;54.50;;;;;;5030783;27;86460;-65
2024/02/20 04:18:25;;;;;;;3.50;2.00;;;21.30;54.60;;;;;;5034521;28;86919;-63
2024/02/20 04:20:51;;;;;;;3.13;1.95;;;21.30;54.60;;;;;;5002656;28;87143;-64
2024/02/20 04:23:17;;;;;;;2.88;1.58;;;21.30;54.50;;;;;;5034853;28;86451;-64
2024/02/20 04:25:43;;;;;;;5.22;2.65;;;21.30;54.50;;;;;;5016639;28;85703;-64
2024/02/20 04:28:09;;;;;;;5.88;2.67;;;21.30;54.50;;;;;;5034975;28;86139;-63
2024/02/20 04:30:39;;;;;;;3.10;2.00;;;21.30;54.60;;;;;;4985963;28;87248;-63
2024/02/20 04:33:05;;;;;;;;;;;21.30;54.60;;;;;;5022194;28;86348;-64
2024/02/20 04:35:31;;;;;;;2.30;1.73;;;21.30;54.40;;;;;;5018189;28;86179;-63
2024/02/20 04:37:58;;;;;;;4.63;2.15;;;21.30;54.50;;;;;;5029049;28;85933;-63
2024/02/20 04:40:26;;;;;;;4.35;1.80;;;21.30;54.40;;;;;;5010332;28;87826;-64
2024/02/20 04:42:52;;;;;;;4.95;1.75;;;21.30;54.60;;;;;;5011480;28;87434;-66
2024/02/20 04:45:18;;;;;;;3.08;2.22;;;21.30;54.50;;;;;;4994016;28;85971;-64
2024/02/20 04:47:43;;;;;;;3.25;1.80;;;21.30;54.40;;;;;;5021263;28;85711;-63
2024/02/20 04:50:09;;;;;;;2.83;1.80;;;21.20;54.40;;;;;;5030305;28;86269;-63
2024/02/20 04:52:35;;;;;;;3.75;1.92;;;21.20;54.40;;;;;;5032187;28;85699;-64
2024/02/20 04:55:02;;;;;;;1.95;1.63;;;21.20;54.30;;;;;;5028337;28;86692;-64
2024/02/20 04:57:29;;;;;;;2.80;1.50;;;21.20;54.30;;;;;;5033622;28;85885;-64
2024/02/20 04:59:55;;;;;;;2.80;1.90;;;21.20;54.20;;;;;;5011523;28;87767;-63
2024/02/20 05:02:22;;;;;;;3.67;2.08;;;21.20;54.40;;;;;;5025366;28;87087;-64
2024/02/20 05:04:49;;;;;;;3.22;1.70;;;21.20;54.20;;;;;;5035825;28;85603;-64
2024/02/20 05:07:16;;;;;;;3.30;2.00;;;21.20;54.30;;;;;;5015351;28;86417;-64
2024/02/20 05:09:42;;;;;;;2.75;1.67;;;21.20;54.20;;;;;;5015310;28;89487;-64
2024/02/20 05:12:08;;;;;;;2.70;2.00;;;21.20;54.30;;;;;;5012919;28;87387;-64
2024/02/20 05:14:34;;;;;;;2.28;1.40;;;21.20;54.20;;;;;;5029297;28;85977;-63
2024/02/20 05:17:00;;;;;;;4.50;2.60;;;21.20;54.30;;;;;;5034497;28;85805;-63
2024/02/20 05:19:28;;;;;;;2.83;1.70;;;21.20;54.30;;;;;;5013290;28;86750;-64
2024/02/20 05:21:56;;;;;;;3.63;2.30;;;21.20;54.20;;;;;;5013862;28;86805;-63
2024/02/20 05:24:23;;;;;;;;;;;21.20;54.20;;;;;;5001597;28;85847;-64
2024/02/20 05:26:48;;;;;;;4.18;2.13;;;21.20;54.20;;;;;;5020766;28;86843;-63
2024/02/20 05:29:14;;;;;;;3.00;1.98;;;21.20;54.40;;;;;;5030702;27;85957;-63
2024/02/20 05:31:40;;;;;;;3.38;2.15;;;21.20;54.20;;;;;;5037234;28;86071;-64
2024/02/20 05:34:07;;;;;;;2.50;1.60;;;21.20;54.30;;;;;;5037213;28;86164;-63
2024/02/20 05:36:33;;;;;;;3.13;2.05;;;21.20;54.20;;;;;;5033792;28;85482;-64
2024/02/20 05:39:00;;;;;;;4.60;1.90;;;21.20;54.30;;;;;;5036953;28;86749;-64
2024/02/20 05:41:30;;;;;;;3.58;2.20;;;21.20;54.30;;;;;;5015705;28;88406;-63
2024/02/20 05:44:00;;;;;;;4.40;2.00;;;21.20;53.40;;;;;;5018025;28;88172;-66
2024/02/20 05:46:26;;;;;;;5.15;1.95;;;21.20;53.30;;;;;;5036639;28;87562;-63
2024/02/20 05:48:54;;;;;;;4.50;2.05;;;21.20;53.60;;;;;;5035727;28;87112;-64
2024/02/20 05:51:20;;;;;;;4.05;1.92;;;21.20;53.80;;;;;;5031599;28;89163;-64
2024/02/20 05:53:45;;;;;;;3.22;2.20;;;21.20;54.00;;;;;;5017064;28;89347;-63
2024/02/20 05:56:11;;;;;;;3.53;2.58;;;21.30;53.90;;;;;;5016446;28;87297;-64
2024/02/20 05:58:37;;;;;;;4.35;2.20;;;21.30;54.00;;;;;;5016582;28;87017;-64
2024/02/20 06:01:08;;;;;;;3.40;2.50;;;21.40;54.20;;;;;;5035885;28;88568;-64
2024/02/20 06:03:36;;;;;;;3.45;2.05;;;21.50;54.10;;;;;;5034778;28;87919;-63
2024/02/20 06:06:06;;;;;;;4.53;2.50;;;21.50;54.00;;;;;;5027142;28;87391;-64
2024/02/20 06:08:33;;;;;;;4.35;2.65;;;21.70;53.90;;;;;;5035852;28;86125;-64
2024/02/20 06:10:59;;;;;;;5.78;2.55;;;21.80;53.50;;;;;;5017510;28;89500;-64
2024/02/20 06:13:26;;;;;;;3.20;2.15;;;21.90;53.10;;;;;;5015789;28;88029;-64
2024/02/20 06:15:52;;;;;;;4.07;2.13;;;22.00;53.10;;;;;;5035668;28;88615;-64
2024/02/20 06:18:18;;;;;;;5.78;2.65;;;22.10;53.00;;;;;;5033912;28;87315;-63
2024/02/20 06:20:48;;;;;;;4.13;2.45;;;22.10;52.90;;;;;;5009581;28;88527;-63
2024/02/20 06:23:14;;;;;;;5.20;2.50;;;22.20;53.00;;;;;;5016490;28;88384;-63
2024/02/20 06:25:44;;;;;;;4.22;2.40;;;22.20;52.80;;;;;;5035887;28;86875;-65
2024/02/20 06:28:12;;;;;;;3.33;2.38;;;22.20;52.80;;;;;;5029554;28;87022;-64
2024/02/20 06:30:38;;;;;;;3.70;2.10;;;22.20;52.90;;;;;;5030658;28;88273;-64
2024/02/20 06:33:09;;;;;;;5.28;1.98;;;22.30;52.80;;;;;;5034064;28;87759;-64
2024/02/20 06:35:36;;;;;;;5.00;2.20;;;22.20;53.00;;;;;;5012686;28;87036;-64
2024/02/20 06:38:02;;;;;;;4.43;2.42;;;22.20;53.00;;;;;;5016633;28;87820;-64
2024/02/20 06:40:28;;;;;;;5.15;2.72;;;22.20;52.90;;;;;;5016026;28;89905;-65
2024/02/20 06:42:54;;;;;;;5.13;2.42;;;22.20;53.00;;;;;;5016528;28;89458;-63
2024/02/20 06:45:20;;;;;;;3.75;2.35;;;22.10;53.10;;;;;;5034266;28;87074;-64
2024/02/20 06:47:48;;;;;;;4.05;2.45;;;22.10;53.00;;;;;;5010932;28;88977;-64
2024/02/20 06:50:16;;;;;;;3.80;2.67;;;22.10;53.20;;;;;;5026100;28;87572;-65
2024/02/20 06:52:43;;;;;;;4.30;2.60;;;22.00;53.70;;;;;;5016790;28;89153;-64
2024/02/20 06:55:10;;;;;;;4.97;2.70;;;22.00;53.10;;;;;;5010227;28;87046;-64
2024/02/20 06:57:40;;;;;;;4.13;2.30;;;22.00;53.30;;;;;;5015615;28;87094;-66
2024/02/20 07:00:26;;;;;;;8.38;2.83;;;21.90;53.20;;;;;;5015793;28;89289;-64
2024/02/20 07:02:52;;;;;;;4.07;2.63;;;21.90;53.40;;;;;;5006244;28;88820;-64
2024/02/20 07:05:18;;;;;;;3.25;2.35;;;21.90;54.10;;;;;;4998222;28;88271;-65
2024/02/20 07:07:47;;;;;;;3.10;2.08;;;21.90;53.60;;;;;;5034700;28;87377;-64
2024/02/20 07:10:15;;;;;;;5.28;2.40;;;22.00;53.20;;;;;;5033388;28;87690;-65
2024/02/20 07:12:40;;;;;;;3.92;2.15;;;22.00;53.30;;;;;;5031441;28;87339;-65
2024/02/20 07:15:07;;;;;;;4.03;2.83;;;22.10;53.20;;;;;;5031224;28;87039;-64
2024/02/20 07:17:34;;;;;;;3.58;2.67;;;22.00;53.20;;;;;;5029946;28;87347;-65
2024/02/20 07:20:01;;;;;;;5.25;2.72;;;22.00;53.10;;;;;;5035210;28;88607;-64
2024/02/20 07:22:29;;;;;;;4.63;2.60;;;22.10;53.00;;;;;;4995509;28;87199;-65
2024/02/20 07:24:57;;;;;;;5.82;2.80;;;22.10;52.90;;;;;;5015716;28;87231;-64
2024/02/20 07:27:27;;;;;;;6.45;3.00;;;22.00;52.90;;;;;;5015679;28;89817;-64
2024/02/20 07:29:53;;;;;;;4.22;2.50;;;22.00;53.00;;;;;;5009174;28;89381;-65
2024/02/20 07:32:19;;;;;;;4.50;2.63;;;22.00;53.00;;;;;;5028204;28;88676;-64
2024/02/20 07:34:50;;;;;;;15.82;4.78;;;21.90;53.00;;;;;;5034787;28;87475;-64
2024/02/20 07:37:16;;;;;;;6.90;3.47;;;21.90;53.10;;;;;;5014720;28;87430;-64
2024/02/20 07:39:41;;;;;;;8.95;3.25;;;21.90;52.90;;;;;;5018655;28;88153;-64
2024/02/20 07:42:07;;;;;;;7.63;2.78;;;22.00;53.40;;;;;;5006743;28;88122;-64
2024/02/20 07:44:35;;;;;;;5.75;3.13;;;22.00;53.60;;;;;;5009980;28;87782;-63
2024/02/20 07:47:05;;;;;;;25.08;6.55;;;22.00;53.40;;;;;;5014336;28;87680;-65
2024/02/20 07:49:31;;;;;;;24.67;5.78;;;22.20;52.90;;;;;;5032947;28;92003;-64
2024/02/20 07:51:57;;;;;;;24.52;6.32;;;22.40;52.30;;;;;;5012911;28;88494;-64
2024/02/20 07:54:24;;;;;;;26.98;7.57;;;22.60;51.80;;;;;;5012180;28;88365;-66
2024/02/20 07:56:49;;;;;;;27.08;7.05;;;22.70;51.60;;;;;;5012631;28;87565;-66
2024/02/20 07:59:17;;;;;;;24.60;7.35;;;22.80;51.40;;;;;;5012267;28;90472;-65
2024/02/20 08:01:51;;;;;;;23.77;7.20;;;22.90;51.40;;;;;;5013938;28;90178;-66
2024/02/20 08:04:17;;;;;;;26.38;7.75;;;23.00;50.90;;;;;;5029583;28;87854;-65
2024/02/20 08:06:44;;;;;;;36.58;8.35;;;23.00;50.70;;;;;;4989068;28;87977;-66
2024/02/20 08:09:10;;;;;;;27.67;7.55;;;23.10;50.70;;;;;;5023580;28;87296;-65
2024/02/20 08:11:36;;;;;;;23.73;7.05;;;23.20;50.60;;;;;;5033562;28;88418;-65
2024/02/20 08:14:02;;;;;;;26.40;7.63;;;23.30;50.20;;;;;;5032375;28;87123;-64
2024/02/20 08:16:32;;;;;;;24.25;6.82;;;23.30;50.00;;;;;;5014706;28;87657;-65
2024/02/20 08:19:00;;;;;;;20.08;7.82;;;23.40;50.20;;;;;;5009058;28;90300;-65
2024/02/20 08:21:28;;;;;;;23.98;6.50;;;23.40;50.00;;;;;;5011524;28;91593;-65
2024/02/20 08:23:55;;;;;;;25.73;8.15;;;23.50;49.80;;;;;;5031487;28;87616;-65
2024/02/20 08:26:21;;;;;;;24.48;6.28;;;23.50;49.70;;;;;;5011629;28;89219;-66
2024/02/20 08:28:46;;;;;;;19.48;6.40;;;23.50;49.80;;;;;;5013565;28;88902;-64
2024/02/20 08:31:18;;;;;;;19.45;7.03;;;23.60;49.60;;;;;;5008190;28;89067;-66
2024/02/20 08:33:46;;;;;;;24.55;7.05;;;23.60;49.40;;;;;;5014336;28;87566;-67
2024/02/20 08:36:13;;;;;;;19.80;6.68;;;23.60;49.30;;;;;;5014827;28;87715;-65
2024/02/20 08:38:38;;;;;;;15.80;6.38;;;23.60;49.40;;;;;;5022117;28;88776;-63
2024/02/20 08:41:04;;;;;;;23.38;6.13;;;23.60;49.30;;;;;;5027000;28;88321;-64
2024/02/20 08:43:30;;;;;;;21.10;6.38;;;23.60;49.30;;;;;;5029211;28;88309;-68
2024/02/20 08:45:57;;;;;;;19.15;6.68;;;23.70;49.20;;;;;;5029993;28;87211;-65
2024/02/20 08:48:23;;;;;;;21.90;7.40;;;23.70;49.10;;;;;;5010239;28;88975;-65
2024/02/20 08:50:50;;;;;;;25.13;7.35;;;23.70;49.30;;;;;;5014419;28;89171;-64
2024/02/20 08:53:16;;;;;;;15.70;5.32;;;23.70;49.20;;;;;;5007345;28;87478;-63
2024/02/20 08:55:43;;;;;;;17.05;5.57;;;23.80;49.20;;;;;;5033112;28;87356;-64
2024/02/20 08:58:08;;;;;;;17.38;6.57;;;23.80;49.00;;;;;;5001029;28;89078;-64
2024/02/20 09:00:38;;;;;;;17.20;5.75;;;23.80;48.90;;;;;;5028046;28;88134;-65
2024/02/20 09:03:04;;;;;;;;;;;23.90;49.00;;;;;;5011152;28;87389;-64
2024/02/20 09:05:34;;;;;;;15.95;6.05;;;23.90;49.00;;;;;;5013223;28;89432;-64
2024/02/20 09:08:01;;;;;;;17.50;6.15;;;23.80;49.20;;;;;;5011438;28;89736;-64
2024/02/20 09:10:26;;;;;;;11.98;5.35;;;23.70;49.30;;;;;;5008553;28;89308;-63
2024/02/20 09:12:56;;;;;;;13.52;5.65;;;23.50;49.40;;;;;;5023408;28;87538;-63
2024/02/20 09:15:23;;;;;;;18.52;6.75;;;23.40;49.80;;;;;;5013598;28;87134;-64
2024/02/20 09:17:51;;;;;;;13.73;5.65;;;23.30;49.90;;;;;;5007336;28;90727;-64
2024/02/20 09:20:16;;;;;;;19.30;6.60;;;23.20;50.20;;;;;;5013431;28;88305;-64
2024/02/20 09:22:42;;;;;;;17.25;6.68;;;23.10;50.10;;;;;;5033882;28;86854;-64
2024/02/20 09:25:09;;;;;;;18.88;6.85;;;23.10;50.40;;;;;;5019257;28;87221;-64
2024/02/20 09:27:42;;;;;;;16.63;7.00;;;23.00;50.50;;;;;;5012509;28;87640;-64
2024/02/20 09:30:08;;;;;;;18.52;6.78;;;23.00;50.70;;;;;;5030741;28;87308;-64
2024/02/20 09:32:34;;;;;;;17.75;6.65;;;22.90;50.70;;;;;;5026006;28;87904;-64
2024/02/20 09:34:59;;;;;;;13.20;5.15;;;22.90;50.80;;;;;;5031998;28;87595;-63
2024/02/20 09:37:25;;;;;;;20.98;6.55;;;22.80;50.90;;;;;;5030381;28;87646;-64
2024/02/20 09:39:51;;;;;;;13.80;5.50;;;22.80;51.00;;;;;;5004348;28;87369;-64
2024/02/20 09:42:29;;;;;;;14.13;5.60;;;22.70;51.20;;;;;;5012853;28;86811;-64
2024/02/20 09:44:56;;;;;;;15.10;5.50;;;22.60;51.30;;;;;;4997645;28;88314;-64
2024/02/20 09:47:23;;;;;;;16.73;6.60;;;22.60;52.00;;;;;;5013058;28;88508;-64
2024/02/20 09:49:50;;;;;;;14.15;6.25;;;22.50;51.30;;;;;;5033934;28;88109;-65
2024/02/20 09:52:19;;;;;;;20.52;6.65;;;22.50;51.50;;;;;;4986193;28;87454;-64
2024/02/20 09:54:48;;;;;;;14.48;5.65;;;22.50;51.60;;;;;;5027087;28;87525;-64
2024/02/20 09:57:16;;;;;;;18.10;6.03;;;22.50;51.60;;;;;;5009044;28;90402;-65
2024/02/20 09:59:45;;;;;;;14.93;5.97;;;22.50;51.70;;;;;;5031826;28;89152;-64
2024/02/20 10:02:20;;;;;;;15.70;6.20;;;22.40;51.70;;;;;;5026417;28;87208;-64
2024/02/20 10:04:48;;;;;;;13.85;4.85;;;22.40;51.90;;;;;;4997995;28;87560;-65
2024/02/20 10:07:17;;;;;;;18.63;5.65;;;22.40;51.90;;;;;;5013603;28;88245;-64
2024/02/20 10:09:44;;;;;;;19.98;5.93;;;22.30;52.10;;;;;;5021202;28;87922;-64
2024/02/20 10:12:26;;;;;;;18.10;6.25;;;22.30;51.90;;;;;;5005580;28;87523;-64
2024/02/20 10:14:52;;;;;;;12.95;5.90;;;22.30;52.00;;;;;;5033595;28;86475;-65
2024/02/20 10:17:18;;;;;;;14.30;5.80;;;22.30;52.20;;;;;;5035924;28;87985;-64
2024/02/20 10:19:47;;;;;;;15.95;6.75;;;22.20;52.00;;;;;;5035967;28;87831;-64
2024/02/20 10:22:29;;;;;;;10.50;4.57;;;22.30;52.20;;;;;;5016943;28;88299;-64
2024/02/20 10:25:08;;;;;;;12.40;4.82;;;22.20;52.20;;;;;;5036003;28;87311;-65
2024/02/20 10:27:37;;;;;;;15.02;5.60;;;22.20;52.20;;;;;;5013133;28;87632;-65
2024/02/20 10:30:07;;;;;;;16.65;5.50;;;22.20;52.30;;;;;;5007559;28;87624;-66
2024/02/20 10:32:36;;;;;;;13.25;5.38;;;22.20;52.40;;;;;;5028108;28;87494;-63
2024/02/20 10:35:03;;;;;;;11.45;4.45;;;22.20;52.40;;;;;;5017583;28;87196;-65
2024/02/20 10:37:29;;;;;;;13.40;5.28;;;22.20;52.40;;;;;;5016160;28;93386;-63
2024/02/20 10:40:09;;;;;;;14.40;5.38;;;22.10;52.40;;;;;;4988152;28;88070;-64
2024/02/20 10:42:37;;;;;;;15.75;5.07;;;22.10;52.40;;;;;;5016694;28;87483;-65
2024/02/20 10:45:11;;;;;;;14.80;5.93;;;22.10;52.30;;;;;;5016134;28;87639;-65
2024/02/20 10:47:45;;;;;;;15.20;5.68;;;22.10;52.30;;;;;;5015908;28;89149;-64
2024/02/20 10:50:15;;;;;;;11.95;5.28;;;22.10;52.40;;;;;;5004836;28;90859;-65
2024/02/20 10:52:42;;;;;;;10.65;4.68;;;22.10;52.30;;;;;;5016845;28;87336;-63
2024/02/20 10:55:12;;;;;;;14.02;5.38;;;22.10;52.30;;;;;;5029835;28;87192;-64
2024/02/20 10:57:41;;;;;;;15.18;5.57;;;22.10;52.30;;;;;;5034119;28;88257;-64
2024/02/20 11:00:11;;;;;;;12.13;4.55;;;22.00;52.50;;;;;;5016342;28;88393;-63
2024/02/20 11:02:37;;;;;;;;;;;22.10;52.30;;;;;;5012416;28;87715;-65
2024/02/20 11:05:12;;;;;;;8.88;4.65;;;22.10;52.40;;;;;;5036593;28;86773;-63
2024/02/20 11:07:38;;;;;;;15.63;5.20;;;22.10;52.40;;;;;;5016413;28;88556;-65
2024/02/20 11:10:26;;;;;;;11.55;5.03;;;22.10;52.50;;;;;;5015587;28;88699;-64
2024/02/20 11:12:51;;;;;;;11.43;4.55;;;22.10;52.40;;;;;;5009406;28;88664;-64
2024/02/20 11:15:21;;;;;;;13.60;5.07;;;22.10;52.20;;;;;;5009433;28;87297;-64
2024/02/20 11:17:50;;;;;;;11.90;5.28;;;22.10;52.30;;;;;;5034036;28;87566;-64
2024/02/20 11:20:23;;;;;;;10.55;4.57;;;22.10;52.10;;;;;;5033937;28;87852;-65
2024/02/20 11:22:49;;;;;;;9.93;4.85;;;22.10;52.20;;;;;;5000943;28;87047;-63
2024/02/20 11:25:28;;;;;;;9.05;4.30;;;22.10;52.20;;;;;;5024402;28;87105;-64
2024/02/20 11:27:54;;;;;;;14.95;4.47;;;22.10;52.10;;;;;;5029556;28;88349;-64
2024/02/20 11:30:22;;;;;;;15.02;5.75;;;22.10;52.20;;;;;;5033850;28;87803;-63
2024/02/20 11:32:50;;;;;;;12.35;5.13;;;22.20;51.90;;;;;;5030385;28;87129;-63
2024/02/20 11:35:25;;;;;;;11.02;4.90;;;22.20;51.80;;;;;;5034554;28;87326;-64
2024/02/20 11:37:54;;;;;;;9.35;4.07;;;22.10;51.80;;;;;;5034232;28;88840;-64
2024/02/20 11:40:22;;;;;;;11.07;4.88;;;22.20;51.80;;;;;;5012427;28;88562;-63
2024/02/20 11:42:49;;;;;;;11.15;4.57;;;22.20;51.90;;;;;;5032904;28;87190;-64
2024/02/20 11:45:20;;;;;;;12.93;5.18;;;22.20;51.70;;;;;;4991077;28;87517;-65
2024/02/20 11:48:07;;;;;;;11.55;4.50;;;22.20;51.70;;;;;;5029292;28;87912;-64
2024/02/20 11:50:37;;;;;;;12.27;4.20;;;22.20;51.70;;;;;;5014051;28;87518;-63
2024/02/20 11:53:07;;;;;;;11.07;4.28;;;22.20;51.60;;;;;;5032763;28;87430;-65
2024/02/20 11:55:33;;;;;;;8.32;4.57;;;22.20;51.60;;;;;;5035222;28;87910;-63
2024/02/20 11:58:04;;;;;;;9.98;4.72;;;22.20;51.70;;;;;;5033203;28;88024;-64
2024/02/20 12:00:35;;;;;;;14.32;4.88;;;22.20;51.50;;;;;;5033912;28;87914;-64
2024/02/20 12:03:02;;;;;;;10.82;4.50;;;22.20;51.30;;;;;;5025064;28;88530;-64
2024/02/20 12:05:28;;;;;;;10.15;4.63;;;22.20;51.20;;;;;;5031265;28;86939;-64
2024/02/20 12:07:56;;;;;;;10.35;4.35;;;22.20;51.40;;;;;;5016815;28;89016;-64
2024/02/20 12:10:26;;;;;;;12.68;4.85;;;22.20;51.50;;;;;;5027640;28;87597;-64
2024/02/20 12:12:53;;;;;;;10.88;4.90;;;22.20;51.60;;;;;;5015780;28;87356;-64
2024/02/20 12:15:18;;;;;;;12.38;5.05;;;22.20;51.50;;;;;;5033060;28;87342;-64
2024/02/20 12:17:45;;;;;;;8.68;4.10;;;22.20;51.30;;;;;;5030892;28;88060;-64
2024/02/20 12:20:13;;;;;;;12.13;4.53;;;22.20;52.10;;;;;;5032737;28;87800;-63
2024/02/20 12:22:41;;;;;;;8.27;3.65;;;22.20;51.30;;;;;;5030776;28;87583;-65
2024/02/20 12:25:11;;;;;;;10.70;4.72;;;22.20;51.00;;;;;;5032734;28;87662;-64
2024/02/20 12:27:38;;;;;;;10.15;4.32;;;22.20;51.20;;;;;;5031190;28;88431;-64
2024/02/20 12:30:05;;;;;;;12.13;3.83;;;22.20;51.10;;;;;;5033122;28;88549;-63
2024/02/20 12:32:32;;;;;;;10.68;4.00;;;22.20;51.10;;;;;;5015329;28;87173;-63
2024/02/20 12:34:58;;;;;;;7.55;3.90;;;22.20;50.90;;;;;;5034603;28;86961;-64
2024/02/20 12:37:26;;;;;;;10.52;4.13;;;22.20;51.00;;;;;;5014210;28;88450;-64
2024/02/20 12:39:52;;;;;;;10.50;4.38;;;22.20;50.90;;;;;;5014714;28;88405;-64
2024/02/20 12:42:18;;;;;;;7.72;4.10;;;22.20;51.10;;;;;;5030402;28;87206;-63
2024/02/20 12:44:46;;;;;;;10.90;3.97;;;22.20;50.90;;;;;;5031205;28;87152;-64